белый大佐さんのマイページ

белый大佐さん プロフィール写真
登録
2011/08/28
アクセス
4,456
航空フォト
43枚
搭乗レビュー
8件
50代

函館市在住。48歳男性。人生で一番スリリングだった離陸はこれ(2009年11月15日)

RJCH 150709Z 23030G44KT 9999 +SHRA FEW008 BKN025CB BKN035 11/04 Q0996 RMK 1ST008 5CB025 7CU035 A2943 CB OHD MOV NE

RJCH 150713Z 23029G40KT 9999 SHRA FEW008 SCT025CB BKN035 10/05 Q0996 RMK 1ST008 4CB025 7CU035 A2943 CB 5KM NE MOV NE

航空フォト(写真)

現在、белый大佐さんの航空フォトは、43投稿されています。

新着写真の6枚を紹介しています。

搭乗レビュー

現在、белый大佐さんの搭乗レビューは、8投稿されています。
新着搭乗レビューの3件を紹介しています。

белый大佐さんの投稿サマリー

белый大佐さんの航空フォト 投稿サマリーならびに搭乗レビュー 投稿サマリーの上位3件を紹介しています。

メニューを開く